createdAt,value
2019-05-05T00:00:42.070Z,0.8
2019-05-05T00:01:51.377Z,0.8
2019-05-05T00:02:58.582Z,0.8
2019-05-05T00:04:05.516Z,0.7
2019-05-05T00:05:12.719Z,0.7
2019-05-05T00:06:21.647Z,0.7
2019-05-05T00:07:31.213Z,0.7
2019-05-05T00:08:38.426Z,0.6
2019-05-05T00:09:45.636Z,0.6
2019-05-05T00:10:57.274Z,0.6
2019-05-05T00:12:05.591Z,0.6
2019-05-05T00:13:14.446Z,0.6
2019-05-05T00:14:21.838Z,0.5
2019-05-05T00:15:31.305Z,0.5
2019-05-05T00:16:38.234Z,0.5
2019-05-05T00:17:45.586Z,0.6
2019-05-05T00:18:54.067Z,0.6
2019-05-05T00:20:01.436Z,0.6
2019-05-05T00:21:08.635Z,0.6
2019-05-05T00:22:15.848Z,0.6
2019-05-05T00:23:24.569Z,0.6
2019-05-05T00:24:32.018Z,0.6
2019-05-05T00:25:41.315Z,0.6
2019-05-05T00:26:48.523Z,0.6
2019-05-05T00:27:55.436Z,0.5
2019-05-05T00:29:04.850Z,0.5
2019-05-05T00:30:12.054Z,0.5
2019-05-05T00:31:21.077Z,0.5
2019-05-05T00:32:28.000Z,0.5
2019-05-05T00:33:35.219Z,0.5
2019-05-05T00:34:44.215Z,0.5
2019-05-05T00:35:51.657Z,0.5
2019-05-05T00:37:01.228Z,0.5
2019-05-05T00:38:10.836Z,0.5
2019-05-05T00:39:18.052Z,0.5
2019-05-05T00:40:25.419Z,0.4
2019-05-05T00:41:32.086Z,0.4
2019-05-05T00:42:41.330Z,0.4
2019-05-05T00:43:48.535Z,0.3
2019-05-05T00:44:55.743Z,0.3
2019-05-05T00:46:05.113Z,0.4
2019-05-05T00:47:14.447Z,0.3
2019-05-05T00:48:21.776Z,0.3
2019-05-05T00:49:49.273Z,0.3
2019-05-05T00:50:56.635Z,0.2
2019-05-05T00:52:05.624Z,0.2
2019-05-05T00:53:15.016Z,0.2
2019-05-05T00:54:24.192Z,0.1
2019-05-05T00:55:31.599Z,0.1
2019-05-05T00:56:38.800Z,0.1
2019-05-05T00:57:46.004Z,0
2019-05-05T00:58:55.062Z,0
2019-05-05T01:00:02.481Z,0
2019-05-05T01:01:11.548Z,0
2019-05-05T01:02:20.703Z,0.1
2019-05-05T01:03:27.640Z,0.1
2019-05-05T01:04:35.733Z,0.1
2019-05-05T01:05:44.692Z,0.1
2019-05-05T01:06:51.784Z,0
2019-05-05T01:08:01.115Z,-0.1
2019-05-05T01:09:08.318Z,-0.1
2019-05-05T01:10:15.518Z,-0.1
2019-05-05T01:11:24.893Z,0
2019-05-05T01:12:32.338Z,-0.1
2019-05-05T01:13:41.597Z,0
2019-05-05T01:14:48.805Z,-0.1
2019-05-05T01:15:55.747Z,-0.1
2019-05-05T01:17:05.060Z,-0.2
2019-05-05T01:18:12.460Z,-0.2
2019-05-05T01:19:21.916Z,-0.2
2019-05-05T01:20:30.994Z,-0.3
2019-05-05T01:21:38.197Z,-0.3
2019-05-05T01:22:45.404Z,-0.3
2019-05-05T01:23:54.564Z,-0.3
2019-05-05T01:25:01.770Z,-0.3
2019-05-05T01:26:08.972Z,-0.4
2019-05-05T01:27:16.172Z,-0.3
2019-05-05T01:28:25.357Z,-0.4
2019-05-05T01:29:34.117Z,-0.3
2019-05-05T01:30:41.587Z,-0.3
2019-05-05T01:31:50.475Z,-0.4
2019-05-05T01:32:57.675Z,-0.4
2019-05-05T01:34:05.440Z,-0.4
2019-05-05T01:35:14.888Z,-0.4
2019-05-05T01:36:23.698Z,-0.4
2019-05-05T01:37:31.137Z,-0.3
2019-05-05T01:38:38.060Z,-0.4
2019-05-05T01:39:45.775Z,-0.3
2019-05-05T01:40:55.253Z,-0.3
2019-05-05T01:42:01.913Z,-0.3
2019-05-05T01:43:11.162Z,-0.4
2019-05-05T01:44:18.361Z,-0.4
2019-05-05T01:45:25.584Z,-0.4
2019-05-05T01:46:32.780Z,-0.5
2019-05-05T01:47:41.795Z,-0.5
2019-05-05T01:48:48.991Z,-0.5
2019-05-05T01:49:56.207Z,-0.5
2019-05-05T01:51:05.491Z,-0.5
2019-05-05T01:52:12.424Z,-0.5
2019-05-05T01:53:21.659Z,-0.6
2019-05-05T01:54:30.792Z,-0.6
2019-05-05T01:55:37.714Z,-0.6
2019-05-05T01:56:45.140Z,-0.6
2019-05-05T01:57:54.160Z,-0.6
2019-05-05T01:59:01.527Z,-0.6
2019-05-05T02:00:08.746Z,-0.6
2019-05-05T02:01:15.680Z,-0.7
2019-05-05T02:02:24.835Z,-0.6
2019-05-05T02:03:31.961Z,-0.6
2019-05-05T02:04:41.328Z,-0.6
2019-05-05T02:05:48.279Z,-0.5
2019-05-05T02:06:55.643Z,-0.5
2019-05-05T02:08:05.344Z,-0.5
2019-05-05T02:09:12.546Z,-0.5
2019-05-05T02:10:19.199Z,-0.5
2019-05-05T02:11:26.403Z,-0.5
2019-05-05T02:12:35.755Z,-0.5
2019-05-05T02:13:42.678Z,-0.6
2019-05-05T02:14:51.820Z,-0.6
2019-05-05T02:16:01.324Z,-0.7
2019-05-05T02:17:10.254Z,-0.7
2019-05-05T02:18:17.454Z,-0.7
2019-05-05T02:19:25.647Z,-0.7
2019-05-05T02:20:34.669Z,-0.7
2019-05-05T02:21:41.896Z,-0.7
2019-05-05T02:22:49.103Z,-0.7
2019-05-05T02:23:56.302Z,-0.7
2019-05-05T02:25:04.754Z,-0.7
2019-05-05T02:26:11.965Z,-0.6
2019-05-05T02:27:21.453Z,-0.6
2019-05-05T02:28:28.681Z,-0.6
2019-05-05T02:29:35.901Z,-0.6
2019-05-05T02:30:46.140Z,-0.6
2019-05-05T02:31:55.823Z,-0.6
2019-05-05T02:33:05.962Z,-0.6
2019-05-05T02:34:16.941Z,-0.6
2019-05-05T02:35:26.237Z,-0.6
2019-05-05T02:36:36.056Z,-0.6
2019-05-05T02:37:46.146Z,-0.6
2019-05-05T02:38:56.327Z,-0.6
2019-05-05T02:40:08.061Z,-0.6
2019-05-05T02:41:16.099Z,-0.6
2019-05-05T02:42:25.617Z,-0.6
2019-05-05T02:43:35.007Z,-0.6
2019-05-05T02:44:45.248Z,-0.5
2019-05-05T02:45:55.699Z,-0.5
2019-05-05T02:47:05.367Z,-0.5
2019-05-05T02:48:15.735Z,-0.5
2019-05-05T02:49:25.293Z,-0.5
2019-05-05T02:50:57.197Z,-0.5
2019-05-05T02:52:15.758Z,-0.4
2019-05-05T02:53:25.188Z,-0.3
2019-05-05T02:54:34.330Z,-0.3
2019-05-05T02:55:40.974Z,-0.3
2019-05-05T02:56:47.926Z,-0.2
2019-05-05T02:57:55.123Z,-0.2
2019-05-05T02:59:04.118Z,-0.2
2019-05-05T03:00:13.334Z,-0.2
2019-05-05T03:01:20.676Z,-0.3
2019-05-05T03:02:27.329Z,-0.3
2019-05-05T03:03:34.852Z,-0.3
2019-05-05T03:04:41.776Z,-0.4
2019-05-05T03:05:51.052Z,-0.4
2019-05-05T03:07:00.101Z,-0.4
2019-05-05T03:08:07.305Z,-0.4
2019-05-05T03:09:14.524Z,-0.3
2019-05-05T03:10:21.454Z,-0.3
2019-05-05T03:11:30.855Z,-0.3
2019-05-05T03:12:38.058Z,-0.3
2019-05-05T03:13:45.251Z,-0.3
2019-05-05T03:14:54.216Z,-0.3
2019-05-05T03:16:01.415Z,-0.3
2019-05-05T03:17:10.487Z,-0.3
2019-05-05T03:18:17.687Z,-0.3
2019-05-05T03:19:24.888Z,-0.3
2019-05-05T03:20:31.518Z,-0.3
2019-05-05T03:21:40.300Z,-0.4
2019-05-05T03:22:47.231Z,-0.4
2019-05-05T03:23:55.268Z,-0.4
2019-05-05T03:25:04.449Z,-0.4
2019-05-05T03:26:13.591Z,-0.4
2019-05-05T03:27:21.264Z,-0.5
2019-05-05T03:28:30.505Z,-0.5
2019-05-05T03:29:37.429Z,-0.5
2019-05-05T03:30:46.007Z,-0.5
2019-05-05T03:31:56.691Z,-0.5
2019-05-05T03:33:06.052Z,-0.6
2019-05-05T03:34:16.780Z,-0.6
2019-05-05T03:35:24.662Z,-0.6
2019-05-05T03:36:33.716Z,-0.6
2019-05-05T03:37:41.066Z,-0.6
2019-05-05T03:38:47.989Z,-0.6
2019-05-05T03:39:55.192Z,-0.5
2019-05-05T03:41:04.107Z,-0.5
2019-05-05T03:42:11.024Z,-0.5
2019-05-05T03:43:20.201Z,-0.5
2019-05-05T03:44:27.404Z,-0.5
2019-05-05T03:45:34.735Z,-0.4
2019-05-05T03:46:43.652Z,-0.4
2019-05-05T03:47:50.794Z,-0.4
2019-05-05T03:48:57.998Z,-0.3
2019-05-05T03:50:04.972Z,-0.2
2019-05-05T03:51:21.235Z,-0.2
2019-05-05T03:52:31.004Z,-0.2
2019-05-05T03:53:38.203Z,-0.2
2019-05-05T03:54:45.409Z,-0.3
2019-05-05T03:55:54.924Z,-0.3
2019-05-05T03:57:04.016Z,-0.3
2019-05-05T03:58:11.224Z,-0.3
2019-05-05T03:59:18.428Z,-0.2
2019-05-05T04:00:25.355Z,-0.2
2019-05-05T04:01:34.399Z,-0.2
2019-05-05T04:02:41.856Z,-0.2
2019-05-05T04:03:51.254Z,-0.2
2019-05-05T04:05:00.053Z,-0.2
2019-05-05T04:06:07.146Z,-0.3
2019-05-05T04:07:14.577Z,-0.3
2019-05-05T04:08:23.893Z,-0.3
2019-05-05T04:09:31.130Z,-0.3
2019-05-05T22:00:06.138Z,2
2019-05-05T22:01:15.431Z,2
2019-05-05T22:02:23.848Z,2
2019-05-05T22:03:30.527Z,2
2019-05-05T22:04:37.477Z,2
2019-05-05T22:05:44.680Z,2
2019-05-05T22:06:53.921Z,2
2019-05-05T22:08:01.289Z,2.1
2019-05-05T22:09:08.490Z,2.1
2019-05-05T22:10:15.709Z,2.1
2019-05-05T22:11:24.716Z,2.2
2019-05-05T22:12:36.253Z,2.2
2019-05-05T22:13:44.811Z,2.2
2019-05-05T22:14:52.022Z,2.3
2019-05-05T22:16:03.868Z,2.3
2019-05-05T22:17:11.210Z,2.4
2019-05-05T22:18:18.429Z,2.4
2019-05-05T22:19:25.638Z,2.4
2019-05-05T22:20:36.753Z,2.5
2019-05-05T22:21:44.328Z,2.5
2019-05-05T22:22:51.548Z,2.4
2019-05-05T22:24:00.956Z,2.5
2019-05-05T22:25:10.139Z,2.5
2019-05-05T22:26:17.071Z,2.5
2019-05-05T22:27:24.355Z,2.5
2019-05-05T22:28:31.564Z,2.5
2019-05-05T22:29:40.862Z,2.6
2019-05-05T22:30:47.789Z,2.6
2019-05-05T22:31:54.992Z,2.6
2019-05-05T22:33:05.596Z,2.6
2019-05-05T22:34:15.128Z,2.6
2019-05-05T22:35:24.412Z,2.7
2019-05-05T22:36:33.672Z,2.8
2019-05-05T22:37:40.488Z,2.8
2019-05-05T22:38:47.414Z,2.9
2019-05-05T22:39:54.818Z,2.9
2019-05-05T22:41:02.044Z,2.9
2019-05-05T22:42:09.255Z,3
2019-05-05T22:43:16.227Z,3
2019-05-05T22:44:24.920Z,3
2019-05-05T22:45:34.090Z,3
2019-05-05T22:46:40.856Z,3
2019-05-05T22:47:48.070Z,3
2019-05-05T22:48:55.278Z,3.1
2019-05-05T22:50:04.943Z,3.1
2019-05-05T22:51:11.863Z,3.1
2019-05-05T22:52:35.754Z,3.2
2019-05-05T22:53:44.363Z,3.2
2019-05-05T22:54:51.566Z,3.2
2019-05-05T22:55:58.793Z,3.3
2019-05-05T22:57:05.975Z,3.3
2019-05-05T22:58:14.866Z,3.3
2019-05-05T22:59:26.138Z,3.3
2019-05-05T23:00:35.355Z,3.3
2019-05-05T23:01:42.283Z,3.3
2019-05-05T23:02:49.716Z,3.3
2019-05-05T23:03:56.914Z,3.4
2019-05-05T23:05:04.647Z,3.3
2019-05-05T23:06:13.732Z,3.3
2019-05-05T23:07:21.004Z,3.4
2019-05-05T23:08:30.286Z,3.4
2019-05-05T23:09:37.260Z,3.4
2019-05-05T23:10:44.459Z,3.4
2019-05-05T23:11:51.671Z,3.4
2019-05-05T23:13:00.808Z,3.4
2019-05-05T23:14:10.240Z,3.4
2019-05-05T23:15:17.179Z,3.4
2019-05-05T23:16:27.015Z,3.4
2019-05-05T23:17:34.743Z,3.4
2019-05-05T23:18:44.171Z,3.4
2019-05-05T23:19:51.439Z,3.5
2019-05-05T23:21:00.680Z,3.4
2019-05-05T23:22:07.889Z,3.5
2019-05-05T23:23:15.128Z,3.5
2019-05-05T23:24:24.352Z,3.5
2019-05-05T23:25:31.602Z,3.5
2019-05-05T23:26:38.520Z,3.6
2019-05-05T23:27:45.717Z,3.6
2019-05-05T23:28:54.231Z,3.6
2019-05-05T23:30:01.444Z,3.6
2019-05-05T23:31:08.650Z,3.6
2019-05-05T23:32:15.785Z,3.7
2019-05-05T23:33:25.417Z,3.7
2019-05-05T23:34:34.380Z,3.7
2019-05-05T23:35:43.230Z,3.7
2019-05-05T23:36:50.552Z,3.8
2019-05-05T23:37:59.810Z,3.8
2019-05-05T23:39:06.469Z,3.8
2019-05-05T23:40:14.817Z,3.8
2019-05-05T23:41:24.360Z,3.8
2019-05-05T23:42:33.248Z,3.8
2019-05-05T23:43:40.657Z,3.9
2019-05-05T23:44:47.868Z,3.9
2019-05-05T23:45:55.075Z,3.9
2019-05-05T23:47:04.263Z,3.9
2019-05-05T23:48:11.592Z,4
2019-05-05T23:49:20.364Z,3.9
2019-05-05T23:50:27.292Z,4
2019-05-05T23:51:35.312Z,4
2019-05-05T23:52:44.837Z,4
2019-05-05T23:53:52.033Z,4
2019-05-05T23:55:04.001Z,4
2019-05-05T23:56:13.399Z,4
2019-05-05T23:57:20.272Z,4
2019-05-05T23:58:27.472Z,4
2019-05-05T23:59:34.698Z,4
